Terminal Aerodrome Forecast
Issued by NWS

Home | Current Version | Previous Version | Text Only | Print | Product List | Glossary On
Versions: 1 2 3 4 5 6 7 8 9 10 11 12 13 14 15 16 17
427
FTUS43 KGRR 122340
TAFMKG
TAF
KMKG 122340Z 1300/1324 33018G30KT 2SM -SN BLSN OVC025
      TEMPO 1300/1303 1SM -SN BKN018
     FM130500 32015G24KT 2SM -SN OVC025
     FM131500 32015G25KT 3SM -SN OVC025
     FM132000 31008KT P6SM SCT040=

USA.gov is the U.S. government's official web portal to all federal, state and local government web resources and services.